Sign-in with your pilot id or email, or register

ICAO: ZBAA Name / Country: Beijing Capital International Airport / China
Latitude: 40.0801 Longitude: 116.585
Total Arrivals:
Strict Standards: Non-static method AirportData::getarrflights() should not be called statically, assuming $this from incompatible context in /var/www/customers/vh-7192/web/home/phpvms/core/templates/airport_info.tpl on line 18
1
Total Departures:
Strict Standards: Non-static method AirportData::getdeptflights() should not be called statically, assuming $this from incompatible context in /var/www/customers/vh-7192/web/home/phpvms/core/templates/airport_info.tpl on line 21
1
Latest Arrival: MTA5PM (VHHH-ZBAA) Tibor Berces Latest Departure: MTA5PM (ZBAA-UHHH) Tibor Berces
Metar: ZBAA 271100Z 15002MPS CAVOK 19/15 Q1016 NOSIG
More info

Charts for ZBAA


NOTAM


Warning: file_get_contents(http://api.vateud.net/notams/ZBAA.json): failed to open stream: Redirection limit reached, aborting in /var/www/customers/vh-7192/web/home/phpvms/core/common/NOTAMSData.class.php on line 18

Warning: Invalid argument supplied for foreach() in /var/www/customers/vh-7192/web/home/phpvms/core/common/NOTAMSData.class.php on line 22

Beijing Capital International Airport